Time;durP1;ratioP1;P1;durP2;ratioP2;P2;SDS_P1;SDS_P2;PMS_P1;PMS_P2;Temp;Humidity;BMP_temperature;BMP_pressure;BME280_temperature;BME280_humidity;BME280_pressure;Samples;Min_cycle;Max_cycle;Signal;HPM_P1;HPM_P2
2021/11/28 00:00:55;;;;;;;26.38;18.69;;;;;;;8.86;78.60;100029.06;491012;106;923121;-81
2021/11/28 00:01:59;;;;;;;28.42;18.77;;;;;;;8.86;78.53;100023.63;490095;105;922616;-81
2021/11/28 00:03:04;;;;;;;29.03;19.26;;;;;;;8.86;78.51;100018.19;489811;105;922513;-82
2021/11/28 00:04:07;;;;;;;29.82;20.57;;;;;;;8.86;78.50;100014.64;490639;106;930387;-82
2021/11/28 00:05:12;;;;;;;27.74;20.06;;;;;;;8.86;78.46;100023.63;493379;105;922363;-84
2021/11/28 00:06:28;;;;;;;26.21;18.56;;;;;;;8.85;78.44;100023.84;492447;104;922740;-82
2021/11/28 00:07:42;;;;;;;22.29;19.22;;;;;;;8.84;78.46;100017.56;488903;105;930533;-83
2021/11/28 00:12:27;;;;;;;23.41;17.80;;;;;;;8.84;78.50;100012.12;493597;105;923073;-82
2021/11/28 00:14:32;;;;;;;19.41;17.04;;;;;;;8.83;78.48;100012.34;491212;105;922912;-82
2021/11/28 00:15:37;;;;;;;21.51;17.46;;;;;;;8.82;78.55;100021.56;492809;105;922529;-83
2021/11/28 00:16:41;;;;;;;20.21;16.56;;;;;;;8.82;78.58;100007.97;490712;106;923135;-82
2021/11/28 00:17:46;;;;;;;24.72;16.39;;;;;;;8.81;78.61;100015.30;490562;106;930523;-83
2021/11/28 00:18:49;;;;;;;20.31;16.38;;;;;;;8.81;78.63;100018.02;490755;105;923034;-83
2021/11/28 00:19:53;;;;;;;18.25;16.20;;;;;;;8.82;78.67;100008.78;490652;105;923105;-82
2021/11/28 00:20:56;;;;;;;20.02;16.48;;;;;;;8.82;78.69;100016.13;492559;106;922824;-81
2021/11/28 00:22:00;;;;;;;18.14;16.14;;;;;;;8.81;78.75;100018.02;492194;105;930433;-82
2021/11/28 00:23:05;;;;;;;20.58;16.65;;;;;;;8.79;78.81;100012.78;490314;105;930665;-82
2021/11/28 00:24:09;;;;;;;17.98;16.17;;;;;;;8.80;78.92;100005.47;491111;106;922793;-82
2021/11/28 00:25:18;;;;;;;21.52;16.12;;;;;;;8.82;78.94;100013.41;490796;104;922628;-82
2021/11/28 00:26:22;;;;;;;20.12;16.18;;;;;;;8.83;79.01;99996.02;480938;107;930796;-82
2021/11/28 00:27:25;;;;;;;16.54;14.89;;;;;;;8.85;79.08;100007.53;482581;107;922694;-83
2021/11/28 00:28:30;;;;;;;19.22;15.00;;;;;;;8.86;79.08;99999.16;493041;105;930632;-83
2021/11/28 00:29:36;;;;;;;16.91;15.22;;;;;;;8.88;79.12;99997.04;490865;106;922654;-83
2021/11/28 00:30:40;;;;;;;15.41;13.85;;;;;;;8.89;79.10;99997.88;490662;104;922856;-82
2021/11/28 00:31:44;;;;;;;15.48;13.86;;;;;;;8.92;79.08;99997.45;491389;104;922597;-82
2021/11/28 00:32:50;;;;;;;17.25;14.69;;;;;;;8.93;79.12;99999.13;493730;105;922543;-82
2021/11/28 00:33:53;;;;;;;15.45;13.38;;;;;;;8.95;79.06;100016.03;492327;104;923028;-82
2021/11/28 00:34:56;;;;;;;15.99;13.74;;;;;;;8.94;79.09;100011.64;490735;105;922389;-82
2021/11/28 00:36:00;;;;;;;15.27;12.84;;;;;;;8.93;79.11;100005.38;491682;105;922625;-82
2021/11/28 00:37:04;;;;;;;15.33;13.71;;;;;;;8.94;79.18;100006.20;490629;106;924854;-82
2021/11/28 00:38:07;;;;;;;20.08;14.43;;;;;;;8.93;79.23;100018.97;491866;105;922627;-82
2021/11/28 00:39:12;;;;;;;15.60;13.81;;;;;;;8.93;79.24;100015.44;491504;104;923100;-83
2021/11/28 00:40:17;;;;;;;20.88;15.10;;;;;;;8.94;79.32;100014.36;491075;105;930460;-82
2021/11/28 00:41:20;;;;;;;19.41;14.44;;;;;;;8.95;79.42;100016.87;490451;105;923095;-83
2021/11/28 00:42:24;;;;;;;19.67;14.74;;;;;;;8.96;79.44;100015.83;491472;106;923075;-83
2021/11/28 00:43:27;;;;;;;16.54;14.83;;;;;;;8.96;79.49;100010.39;490306;105;930554;-81
2021/11/28 00:44:31;;;;;;;16.65;14.62;;;;;;;8.98;79.54;100016.45;491825;105;923045;-83
2021/11/28 00:45:34;;;;;;;17.52;14.69;;;;;;;9.00;79.57;100011.61;491396;105;930426;-82
2021/11/28 00:46:38;;;;;;;18.61;15.09;;;;;;;9.02;79.49;100014.13;491420;105;922420;-81
2021/11/28 00:47:41;;;;;;;17.33;15.51;;;;;;;9.02;79.50;100008.69;490598;105;930566;-82
2021/11/28 00:48:45;;;;;;;17.34;15.39;;;;;;;9.03;79.48;100004.92;491249;105;930554;-83
2021/11/28 00:50:01;;;;;;;18.68;15.18;;;;;;;9.04;79.49;100004.67;490452;106;930711;-83
2021/11/28 00:51:11;;;;;;;17.91;15.59;;;;;;;9.05;79.46;100002.80;491163;105;922527;-83
2021/11/28 00:52:00;;;;;;;21.96;15.78;;;;;;;9.06;79.45;99999.03;490933;104;922522;-83
2021/11/28 00:53:03;;;;;;;23.25;17.15;;;;;;;9.07;79.44;100006.14;490613;105;922397;-83
2021/11/28 00:54:08;;;;;;;22.33;16.63;;;;;;;9.07;79.41;100003.42;489838;106;922941;-79
2021/11/28 00:55:13;;;;;;;18.55;16.35;;;;;;;9.07;79.35;100006.97;493378;105;923097;-80
2021/11/28 00:56:17;;;;;;;22.22;16.12;;;;;;;9.08;79.32;100005.09;492560;104;930613;-78
2021/11/28 00:57:23;;;;;;;18.19;15.92;;;;;;;9.08;79.34;100011.37;492284;104;922652;-79
2021/11/28 00:58:27;;;;;;;20.12;16.35;;;;;;;9.09;79.26;100009.48;492165;106;930690;-80
2021/11/28 00:59:30;;;;;;;23.81;17.38;;;;;;;9.08;79.28;100013.25;491386;105;922745;-80
2021/11/28 01:00:33;;;;;;;28.67;17.77;;;;;;;9.08;79.27;100021.41;490732;104;922999;-79
2021/11/28 01:01:37;;;;;;;25.50;17.66;;;;;;;9.08;79.27;100016.81;492476;104;922889;-79
2021/11/28 01:02:41;;;;;;;23.40;17.23;;;;;;;9.07;79.24;100026.02;490782;106;930831;-79
2021/11/28 01:03:45;;;;;;;20.82;17.45;;;;;;;9.07;79.19;100042.33;490783;105;922544;-79
2021/11/28 01:04:48;;;;;;;31.21;18.65;;;;;;;9.05;79.17;100044.42;490997;105;922588;-78
2021/11/28 01:05:53;;;;;;;23.48;19.39;;;;;;;9.03;79.15;100041.11;492679;106;922609;-80
2021/11/28 01:06:57;;;;;;;24.02;21.51;;;;;;;9.02;79.17;100053.03;490074;105;922521;-80
2021/11/28 01:08:00;;;;;;;27.51;21.81;;;;;;;9.00;79.20;100051.56;492626;105;922535;-80
2021/11/28 01:09:07;;;;;;;23.36;21.09;;;;;;;8.99;79.21;100052.61;491362;105;922533;-80
2021/11/28 01:10:13;;;;;;;22.85;20.18;;;;;;;8.98;79.22;100045.53;489685;105;922875;-80
2021/11/28 01:11:16;;;;;;;20.32;17.75;;;;;;;8.96;79.23;100042.18;492065;105;922606;-80
2021/11/28 01:12:20;;;;;;;22.77;18.96;;;;;;;8.94;79.06;100046.99;489943;104;930716;-79
2021/11/28 01:13:24;;;;;;;19.62;17.68;;;;;;;8.94;79.06;100046.99;491269;105;930629;-79
2021/11/28 01:14:28;;;;;;;21.30;18.14;;;;;;;8.93;79.30;100042.62;490394;106;930426;-79
2021/11/28 01:15:31;;;;;;;18.28;16.48;;;;;;;8.93;79.29;100048.06;493741;106;931143;-80
2021/11/28 01:16:35;;;;;;;20.65;17.80;;;;;;;8.92;79.28;100052.67;491758;105;922487;-80
2021/11/28 01:17:39;;;;;;;20.50;17.48;;;;;;;8.90;79.36;100045.77;491608;105;930641;-80
2021/11/28 01:18:42;;;;;;;17.91;15.87;;;;;;;8.89;79.43;100047.65;490933;106;923078;-80
2021/11/28 01:19:47;;;;;;;19.02;17.19;;;;;;;8.88;79.50;100054.13;492477;105;922558;-80
2021/11/28 01:20:50;;;;;;;23.21;20.97;;;;;;;8.89;79.53;100049.53;491058;105;923004;-79
2021/11/28 01:21:57;;;;;;;25.64;21.64;;;;;;;8.89;79.58;100057.69;490759;106;930559;-79
2021/11/28 01:23:01;;;;;;;22.57;19.97;;;;;;;8.89;79.67;100054.97;491568;106;930459;-80
2021/11/28 01:24:04;;;;;;;22.02;19.73;;;;;;;8.88;79.71;100061.45;492359;105;922685;-80
2021/11/28 01:25:10;;;;;;;20.99;18.96;;;;;;;8.88;79.74;100065.00;491313;105;922996;-79
2021/11/28 01:26:16;;;;;;;24.04;18.94;;;;;;;8.88;79.81;100064.16;491131;106;922567;-80
2021/11/28 01:27:21;;;;;;;23.33;20.18;;;;;;;8.89;79.88;100071.28;491525;106;922643;-80
2021/11/28 01:28:25;;;;;;;19.94;18.00;;;;;;;8.90;79.95;100067.52;492292;105;922657;-80
2021/11/28 01:29:29;;;;;;;18.44;15.61;;;;;;;8.90;79.96;100067.52;491434;105;923018;-79
2021/11/28 01:30:33;;;;;;;17.72;15.01;;;;;;;8.90;79.99;100064.80;493218;105;922496;-79
2021/11/28 01:31:36;;;;;;;16.21;14.78;;;;;;;8.90;80.03;100071.07;482016;108;922619;-78
2021/11/28 01:32:42;;;;;;;15.63;13.90;;;;;;;8.91;79.90;100072.75;482385;106;923012;-79
2021/11/28 01:33:46;;;;;;;17.28;14.54;;;;;;;8.91;80.10;100064.59;490808;105;922561;-78
2021/11/28 01:34:49;;;;;;;17.99;15.06;;;;;;;8.93;80.13;100064.38;490843;104;922497;-79
2021/11/28 01:35:53;;;;;;;17.30;15.64;;;;;;;8.93;80.15;100062.47;490864;106;923075;-79
2021/11/28 01:36:57;;;;;;;16.24;14.05;;;;;;;8.95;80.16;100062.26;492846;105;922686;-78
2021/11/28 01:38:01;;;;;;;16.90;14.36;;;;;;;8.96;80.18;100066.66;492466;105;922928;-79
2021/11/28 01:39:09;;;;;;;14.67;12.91;;;;;;;9.00;80.21;100062.44;490521;105;922760;-78
2021/11/28 01:40:15;;;;;;;16.36;13.43;;;;;;;9.03;80.22;100064.74;491063;105;923720;-79
2021/11/28 01:41:19;;;;;;;15.66;14.16;;;;;;;9.04;80.19;100067.22;491486;106;922543;-79
2021/11/28 01:42:44;;;;;;;18.30;14.22;;;;;;;9.07;80.19;100063.25;491916;105;922560;-78
2021/11/28 01:43:51;;;;;;;16.75;15.01;;;;;;;9.09;80.16;100058.44;486975;104;922619;-79
2021/11/28 01:44:53;;;;;;;18.84;15.41;;;;;;;9.11;80.11;100056.31;481860;106;922500;-79
2021/11/28 01:45:57;;;;;;;18.62;16.07;;;;;;;9.11;80.08;100059.87;481528;106;923634;-80
2021/11/28 01:47:01;;;;;;;16.44;14.83;;;;;;;9.13;80.11;100049.62;492156;105;922583;-79
2021/11/28 01:48:07;;;;;;;14.41;13.04;;;;;;;9.15;80.14;100052.94;491712;106;930543;-83
2021/11/28 01:49:11;;;;;;;16.63;14.36;;;;;;;9.17;80.13;100060.88;492205;106;922907;-80
2021/11/28 01:50:14;;;;;;;15.02;13.49;;;;;;;9.19;80.06;100056.07;492435;106;922973;-80
2021/11/28 01:51:19;;;;;;;14.28;12.90;;;;;;;9.18;80.03;100055.23;483942;107;922648;-79
2021/11/28 01:52:23;;;;;;;15.10;13.61;;;;;;;9.20;80.00;100060.47;473927;109;930533;-79
2021/11/28 01:53:28;;;;;;;14.10;12.35;;;;;;;9.20;79.92;100050.42;477382;108;922624;-80
2021/11/28 01:54:32;;;;;;;13.98;12.61;;;;;;;9.22;79.90;100047.45;467005;110;930345;-80
2021/11/28 01:55:36;;;;;;;14.98;12.58;;;;;;;9.23;79.88;100051.02;472803;109;923513;-80
2021/11/28 01:56:44;;;;;;;14.21;12.79;;;;;;;9.23;79.86;100053.73;474464;110;923479;-80
2021/11/28 01:57:49;;;;;;;13.59;12.28;;;;;;;9.23;79.81;100043.69;475530;110;922605;-79
2021/11/28 01:58:53;;;;;;;14.28;12.55;;;;;;;9.23;79.82;100043.69;475162;109;922561;-78
2021/11/28 01:59:59;;;;;;;14.58;12.98;;;;;;;9.25;79.77;100046.20;466240;112;930407;-79
2021/11/28 02:01:06;;;;;;;16.76;13.11;;;;;;;9.25;79.72;100048.92;485762;106;922689;-79
2021/11/28 02:02:11;;;;;;;13.19;11.77;;;;;;;9.24;79.72;100047.25;492080;106;923317;-79
2021/11/28 02:03:17;;;;;;;13.33;12.04;;;;;;;9.24;79.73;100049.97;491995;105;923061;-80
2021/11/28 02:04:21;;;;;;;12.81;11.53;;;;;;;9.25;79.74;100052.48;493240;105;922610;-79
2021/11/28 02:05:25;;;;;;;17.69;13.45;;;;;;;9.26;79.73;100054.16;484367;108;923175;-79
2021/11/28 02:06:29;;;;;;;14.25;12.42;;;;;;;9.28;79.76;100051.19;484792;106;924882;-79
2021/11/28 02:07:33;;;;;;;15.98;12.07;;;;;;;9.29;79.76;100052.86;489359;105;930354;-79
2021/11/28 02:08:37;;;;;;;15.53;12.86;;;;;;;9.30;79.74;100052.66;492256;106;928828;-79
2021/11/28 02:09:40;;;;;;;12.40;10.96;;;;;;;9.32;79.72;100053.25;493288;106;930368;-80
2021/11/28 02:10:44;;;;;;;14.49;13.06;;;;;;;9.33;79.64;100046.76;491934;105;923030;-80
2021/11/28 02:11:48;;;;;;;16.76;12.76;;;;;;;9.35;79.61;100052.83;492464;106;930488;-79
2021/11/28 02:12:52;;;;;;;14.74;12.76;;;;;;;9.34;79.57;100045.70;492392;105;930368;-80
2021/11/28 02:13:55;;;;;;;14.11;12.16;;;;;;;9.37;79.55;100053.42;490279;106;923202;-79
2021/11/28 02:15:00;;;;;;;13.14;11.84;;;;;;;9.37;79.54;100052.61;489723;105;922541;-80
2021/11/28 02:16:04;;;;;;;12.51;11.21;;;;;;;9.37;79.49;100050.70;490701;104;922795;-79
2021/11/28 02:17:10;;;;;;;13.94;11.66;;;;;;;9.38;79.48;100046.93;490984;106;922855;-79
2021/11/28 02:18:14;;;;;;;14.13;12.36;;;;;;;9.39;79.44;100048.60;491445;104;922499;-78
2021/11/28 02:19:17;;;;;;;12.86;11.79;;;;;;;9.40;79.38;100052.16;490959;105;923276;-79
2021/11/28 02:20:26;;;;;;;14.02;12.01;;;;;;;9.42;79.31;100058.23;492499;105;930365;-79
2021/11/28 02:21:30;;;;;;;14.29;12.95;;;;;;;9.41;79.22;100053.83;492060;106;922617;-80
2021/11/28 02:22:34;;;;;;;14.02;12.62;;;;;;;9.41;79.17;100057.39;493749;106;922580;-80
2021/11/28 02:23:38;;;;;;;14.74;13.39;;;;;;;9.41;79.13;100056.55;494876;106;922512;-80
2021/11/28 02:24:43;;;;;;;14.61;13.07;;;;;;;9.41;79.06;100060.11;492681;105;922773;-79
2021/11/28 02:25:47;;;;;;;15.97;13.20;;;;;;;9.41;79.06;100054.67;494247;106;923071;-80
2021/11/28 02:26:51;;;;;;;14.66;13.19;;;;;;;9.42;79.15;100050.91;494127;106;922589;-79
2021/11/28 02:27:56;;;;;;;14.16;12.62;;;;;;;9.44;79.12;100046.05;494902;104;922633;-79
2021/11/28 02:29:01;;;;;;;15.34;13.34;;;;;;;9.45;79.07;100046.89;493314;105;922551;-81
2021/11/28 02:30:07;;;;;;;14.31;12.19;;;;;;;9.45;78.99;100047.73;491636;105;922731;-78
2021/11/28 02:31:12;;;;;;;14.43;12.86;;;;;;;9.47;79.02;100052.95;493259;105;922728;-80
2021/11/28 02:32:16;;;;;;;14.76;12.85;;;;;;;9.48;78.99;100057.34;491860;106;923092;-80
2021/11/28 02:33:21;;;;;;;15.37;12.63;;;;;;;9.49;78.87;100056.27;484402;107;922751;-79
2021/11/28 02:34:24;;;;;;;20.48;12.94;;;;;;;9.48;78.79;100060.07;486594;107;922650;-80
2021/11/28 02:35:31;;;;;;;13.75;12.13;;;;;;;9.47;78.75;100056.52;493027;106;930529;-78
2021/11/28 02:36:34;;;;;;;14.44;12.69;;;;;;;9.48;78.70;100058.16;492664;106;930339;-79
2021/11/28 02:37:38;;;;;;;13.23;11.95;;;;;;;9.48;78.68;100057.34;491919;105;922468;-80
2021/11/28 02:38:45;;;;;;;14.52;11.99;;;;;;;9.48;78.68;100062.79;491731;106;922957;-79
2021/11/28 02:39:48;;;;;;;13.33;12.06;;;;;;;9.48;78.62;100060.07;494173;106;930307;-79
2021/11/28 02:40:52;;;;;;;13.38;11.89;;;;;;;9.47;78.59;100064.67;494451;106;922961;-81
2021/11/28 02:41:57;;;;;;;13.08;11.87;;;;;;;9.48;78.58;100068.23;492058;105;930297;-79
2021/11/28 02:43:00;;;;;;;13.86;12.66;;;;;;;9.48;78.54;100063.59;492500;106;923054;-81
2021/11/28 02:44:04;;;;;;;14.05;12.69;;;;;;;9.47;78.54;100067.40;495019;106;922376;-79
2021/11/28 02:45:10;;;;;;;14.26;12.78;;;;;;;9.48;78.53;100055.44;483856;108;923255;-80
2021/11/28 02:46:14;;;;;;;14.79;13.09;;;;;;;9.48;78.49;100062.79;475915;108;922611;-79
2021/11/28 02:47:20;;;;;;;15.42;13.84;;;;;;;9.47;78.48;100056.52;485045;106;923403;-79
2021/11/28 02:48:24;;;;;;;13.84;12.46;;;;;;;9.48;78.51;100054.63;492235;106;930304;-80
2021/11/28 02:49:27;;;;;;;15.95;14.22;;;;;;;9.46;78.47;100057.56;486077;107;923653;-80
2021/11/28 02:50:31;;;;;;;15.14;13.63;;;;;;;9.45;78.46;100061.33;484967;106;923626;-80
2021/11/28 02:51:36;;;;;;;18.24;15.88;;;;;;;9.45;78.49;100061.33;490627;105;930561;-79
2021/11/28 02:52:40;;;;;;;20.69;17.78;;;;;;;9.44;78.50;100056.94;493066;105;923045;-80
2021/11/28 02:53:43;;;;;;;18.74;16.75;;;;;;;9.43;78.54;100060.70;492546;106;922672;-80
2021/11/28 02:54:47;;;;;;;19.93;17.26;;;;;;;9.44;78.54;100048.77;492506;106;930710;-79
2021/11/28 02:55:55;;;;;;;18.44;16.49;;;;;;;9.44;78.54;100053.38;491597;106;923200;-79
2021/11/28 02:56:59;;;;;;;18.46;15.19;;;;;;;9.44;78.59;100048.77;491802;105;930535;-79
2021/11/28 02:58:05;;;;;;;18.67;14.64;;;;;;;9.45;78.60;100055.05;492133;105;922596;-79
2021/11/28 02:59:09;;;;;;;15.49;13.50;;;;;;;9.45;78.59;100055.05;483354;107;930653;-80
2021/11/28 03:00:14;;;;;;;14.32;12.79;;;;;;;9.45;78.54;100058.61;484570;106;922593;-78
2021/11/28 03:01:21;;;;;;;14.52;13.12;;;;;;;9.45;78.53;100057.77;492112;105;922564;-80
2021/11/28 03:02:37;;;;;;;15.77;14.14;;;;;;;9.43;78.55;100055.27;489618;105;923118;-79
2021/11/28 03:03:43;;;;;;;14.07;12.85;;;;;;;9.42;78.62;100050.91;489595;106;922472;-78
2021/11/28 03:04:47;;;;;;;18.62;13.61;;;;;;;9.42;78.64;100053.63;492096;104;922487;-78
2021/11/28 03:05:51;;;;;;;16.06;13.52;;;;;;;9.41;78.67;100060.11;493136;105;922479;-80
2021/11/28 03:06:54;;;;;;;16.86;14.28;;;;;;;9.40;78.68;100061.16;493457;105;923109;-77
2021/11/28 03:07:58;;;;;;;16.74;13.17;;;;;;;9.39;78.76;100059.48;492991;105;930538;-79
2021/11/28 03:09:02;;;;;;;14.95;13.30;;;;;;;9.40;78.83;100057.60;495186;106;923018;-78
2021/11/28 03:10:07;;;;;;;16.90;13.79;;;;;;;9.40;78.94;100063.87;494340;105;930328;-78
2021/11/28 03:11:14;;;;;;;21.01;13.73;;;;;;;9.41;78.90;100064.72;490954;105;922533;-79
2021/11/28 03:12:17;;;;;;;15.92;14.39;;;;;;;9.41;78.87;100056.55;493225;106;922831;-80
2021/11/28 03:13:24;;;;;;;16.51;14.19;;;;;;;9.40;78.96;100066.60;493432;106;922473;-79
2021/11/28 03:14:29;;;;;;;15.69;14.06;;;;;;;9.41;79.05;100060.11;493141;106;930650;-78
2021/11/28 03:15:33;;;;;;;16.73;14.93;;;;;;;9.41;79.05;100060.11;492384;105;922420;-79
2021/11/28 03:16:37;;;;;;;14.98;13.63;;;;;;;9.42;79.03;100061.78;493252;104;922499;-77
2021/11/28 03:17:40;;;;;;;13.89;12.39;;;;;;;9.42;78.99;100067.23;491617;105;930379;-78
2021/11/28 03:18:44;;;;;;;14.33;12.64;;;;;;;9.42;79.01;100069.11;492283;105;922532;-80
2021/11/28 03:19:49;;;;;;;13.95;12.70;;;;;;;9.41;79.00;100064.72;490815;105;922399;-78
2021/11/28 03:20:54;;;;;;;15.75;12.76;;;;;;;9.41;79.09;100067.44;491728;104;922769;-77
2021/11/28 03:21:59;;;;;;;14.18;12.56;;;;;;;9.41;79.09;100070.16;492976;106;922578;-77
2021/11/28 03:23:02;;;;;;;14.53;12.65;;;;;;;9.41;79.16;100072.88;491776;105;923051;-77
2021/11/28 03:24:07;;;;;;;15.79;13.38;;;;;;;9.41;79.22;100072.88;492407;104;922564;-79
2021/11/28 03:25:11;;;;;;;13.03;11.79;;;;;;;9.41;79.21;100073.72;493622;105;930339;-78
2021/11/28 03:26:30;;;;;;;13.82;12.41;;;;;;;9.43;79.22;100073.47;491983;106;923192;-78
2021/11/28 03:27:34;;;;;;;14.73;11.49;;;;;;;9.43;79.14;100068.03;492367;106;922529;-80
2021/11/28 03:28:44;;;;;;;13.02;11.57;;;;;;;9.43;79.17;100068.03;490748;106;922509;-79
2021/11/28 03:29:48;;;;;;;13.55;12.16;;;;;;;9.43;79.20;100068.03;492404;106;930467;-77
2021/11/28 03:30:55;;;;;;;13.45;11.88;;;;;;;9.43;79.18;100070.75;458858;114;923236;-78
2021/11/28 03:32:17;;;;;;;14.19;12.15;;;;;;;9.43;79.13;100065.31;492940;105;922298;-77
2021/11/28 03:33:38;;;;;;;16.39;12.91;;;;;;;9.42;79.06;100061.78;469273;112;922475;-80
2021/11/28 03:34:48;;;;;;;15.94;13.82;;;;;;;9.52;79.10;100067.56;469995;110;1203622;-79
2021/11/28 03:35:59;;;;;;;19.56;15.16;;;;;;;9.41;79.06;100076.44;469171;112;922573;-78
2021/11/28 03:37:04;;;;;;;19.30;15.12;;;;;;;9.42;78.99;100064.50;470865;111;922324;-76
2021/11/28 03:38:09;;;;;;;19.65;15.02;;;;;;;9.43;79.03;100074.31;471037;111;922574;-76
2021/11/28 03:39:13;;;;;;;22.76;15.19;;;;;;;9.45;79.04;100072.22;468010;112;930564;-79
2021/11/28 03:40:18;;;;;;;18.65;16.37;;;;;;;9.45;78.98;100065.94;465559;112;922835;-79
2021/11/28 03:41:23;;;;;;;20.86;15.73;;;;;;;9.45;78.95;100074.09;466098;112;922345;-77
2021/11/28 03:42:27;;;;;;;20.04;15.68;;;;;;;9.46;78.99;100075.77;465244;112;930141;-81
2021/11/28 03:43:30;;;;;;;20.35;15.46;;;;;;;9.46;78.96;100075.77;465745;114;922384;-79
2021/11/28 03:44:34;;;;;;;19.40;14.98;;;;;;;9.45;78.94;100069.50;463369;113;922830;-76
2021/11/28 03:45:45;;;;;;;17.72;15.14;;;;;;;9.46;78.92;100076.61;455832;114;930482;-78
2021/11/28 03:46:48;;;;;;;21.90;15.59;;;;;;;9.47;78.97;100075.56;456932;114;922536;-77
2021/11/28 03:47:52;;;;;;;16.94;15.26;;;;;;;9.48;78.95;100087.28;465853;112;922591;-79
2021/11/28 03:48:58;;;;;;;18.24;14.34;;;;;;;9.48;78.94;100079.92;465360;113;922832;-77
2021/11/28 03:50:05;;;;;;;19.19;15.14;;;;;;;9.49;78.96;100076.16;465396;112;922332;-79
2021/11/28 03:51:09;;;;;;;25.11;15.84;;;;;;;9.49;78.90;100076.16;465414;113;923541;-79
2021/11/28 03:52:13;;;;;;;18.62;15.17;;;;;;;9.48;78.85;100079.12;465977;113;922766;-77
2021/11/28 03:53:16;;;;;;;21.72;15.66;;;;;;;9.46;78.84;100075.77;464801;112;922477;-77
2021/11/28 03:54:20;;;;;;;22.12;16.31;;;;;;;9.44;78.86;100073.27;465613;112;922802;-80
2021/11/28 03:55:24;;;;;;;15.95;14.32;;;;;;;9.42;78.86;100080.83;464132;112;930226;-77
2021/11/28 03:56:28;;;;;;;17.93;15.20;;;;;;;9.40;78.87;100080.20;464834;112;923130;-79
2021/11/28 03:57:33;;;;;;;15.11;13.56;;;;;;;9.38;78.92;100081.47;465037;113;922781;-79
2021/11/28 03:58:38;;;;;;;17.61;14.39;;;;;;;9.36;79.03;100084.42;465899;112;922248;-79
2021/11/28 03:59:42;;;;;;;17.44;13.75;;;;;;;9.35;79.07;100082.75;464847;113;922529;-77
2021/11/28 04:00:45;;;;;;;20.25;14.19;;;;;;;9.34;79.17;100082.96;465417;112;922430;-78
2021/11/28 04:01:50;;;;;;;13.85;12.45;;;;;;;9.33;79.25;100082.13;465660;112;930429;-79
2021/11/28 04:02:54;;;;;;;14.07;12.68;;;;;;;9.34;79.33;100091.96;464402;112;930119;-79
2021/11/28 04:03:59;;;;;;;16.37;13.16;;;;;;;9.35;79.40;100085.47;464400;112;922965;-76
2021/11/28 04:05:19;;;;;;;17.22;12.92;;;;;;;9.36;79.44;100092.59;462234;113;922836;-79
2021/11/28 04:06:25;;;;;;;14.47;12.87;;;;;;;9.37;79.51;100093.42;465101;112;922789;-78
2021/11/28 04:07:31;;;;;;;17.24;13.67;;;;;;;9.37;79.54;100094.23;464729;112;922999;-78
2021/11/28 04:08:37;;;;;;;15.54;12.16;;;;;;;9.39;79.57;100086.70;457315;114;922523;-76
2021/11/28 04:09:41;;;;;;;13.23;11.85;;;;;;;9.41;79.57;100091.92;457332;112;922422;-79
2021/11/28 04:10:45;;;;;;;19.12;12.76;;;;;;;9.41;79.62;100084.60;464894;112;922525;-78
2021/11/28 04:11:48;;;;;;;14.02;12.75;;;;;;;9.43;79.62;100085.20;465033;112;922808;-78
2021/11/28 04:12:52;;;;;;;16.11;13.36;;;;;;;9.46;79.57;100097.55;463731;113;930189;-80
2021/11/28 04:13:55;;;;;;;15.72;12.61;;;;;;;9.45;79.49;100088.54;466286;112;930189;-78
2021/11/28 04:14:59;;;;;;;14.45;12.16;;;;;;;9.45;79.49;100088.54;465179;112;930299;-77
2021/11/28 04:16:04;;;;;;;16.49;11.68;;;;;;;9.46;79.51;100086.66;464777;112;930225;-79
2021/11/28 04:17:09;;;;;;;14.48;12.51;;;;;;;9.47;79.54;100088.33;456052;114;922187;-78
2021/11/28 04:18:14;;;;;;;13.48;12.16;;;;;;;9.46;79.49;100101.09;456708;114;922202;-79
2021/11/28 04:19:18;;;;;;;15.23;12.36;;;;;;;9.48;79.46;100096.25;465894;113;922146;-76
2021/11/28 04:20:23;;;;;;;15.51;12.81;;;;;;;9.49;79.40;100091.64;465639;112;930496;-76
2021/11/28 04:21:27;;;;;;;14.29;12.66;;;;;;;9.49;79.31;100097.09;465035;113;922224;-81
2021/11/28 04:22:31;;;;;;;14.04;12.51;;;;;;;9.49;79.25;100097.09;465669;112;922195;-78
2021/11/28 04:23:35;;;;;;;13.29;11.99;;;;;;;9.49;79.27;100102.53;465310;112;922326;-78
2021/11/28 04:24:38;;;;;;;15.11;13.54;;;;;;;9.49;79.21;100091.64;465708;113;922335;-78
2021/11/28 04:25:43;;;;;;;15.82;12.94;;;;;;;9.48;79.18;100088.09;465640;111;922565;-77
2021/11/28 04:26:47;;;;;;;14.33;11.92;;;;;;;9.47;79.22;100089.17;455804;116;922222;-79
2021/11/28 04:27:50;;;;;;;17.03;13.83;;;;;;;9.46;79.22;100084.77;456914;114;922633;-80
2021/11/28 04:28:54;;;;;;;16.54;13.14;;;;;;;9.46;79.25;100079.33;465384;112;922505;-77
2021/11/28 04:29:57;;;;;;;14.18;12.79;;;;;;;9.46;79.30;100079.33;465729;112;922637;-79
2021/11/28 04:31:01;;;;;;;17.22;13.71;;;;;;;9.47;79.34;100081.00;446559;117;923458;-78
2021/11/28 04:32:05;;;;;;;15.23;13.66;;;;;;;9.47;79.31;100075.56;456982;114;922541;-78
2021/11/28 04:33:10;;;;;;;15.34;13.73;;;;;;;9.46;79.23;100073.89;454929;116;930280;-79
2021/11/28 04:34:14;;;;;;;15.94;14.42;;;;;;;9.46;79.23;100075.77;456044;114;922266;-78
2021/11/28 04:35:18;;;;;;;16.28;13.25;;;;;;;9.46;79.29;100081.22;464568;114;922335;-79
2021/11/28 04:36:22;;;;;;;20.30;13.75;;;;;;;9.47;79.25;100085.61;465962;112;930186;-77
2021/11/28 04:37:26;;;;;;;15.91;13.70;;;;;;;9.46;79.24;100084.77;465115;112;923016;-76
2021/11/28 04:38:30;;;;;;;19.24;15.33;;;;;;;9.45;79.31;100091.27;464981;111;922904;-78
2021/11/28 04:39:35;;;;;;;14.88;13.42;;;;;;;9.46;79.28;100097.55;465919;113;922453;-80
2021/11/28 04:40:39;;;;;;;13.98;12.64;;;;;;;9.47;79.29;100104.66;465682;114;922615;-79
2021/11/28 04:41:43;;;;;;;15.83;12.90;;;;;;;9.47;79.29;100108.22;465034;112;922323;-77
2021/11/28 04:42:47;;;;;;;14.30;11.71;;;;;;;9.48;79.27;100111.77;465887;111;930614;-78
2021/11/28 04:43:51;;;;;;;13.02;11.48;;;;;;;9.49;79.27;100107.97;465531;113;930185;-80
2021/11/28 04:44:55;;;;;;;12.12;10.68;;;;;;;9.49;79.24;100108.81;465825;113;930713;-78
2021/11/28 04:45:58;;;;;;;12.67;11.13;;;;;;;9.49;79.23;100121.58;465508;113;922356;-78
2021/11/28 04:47:04;;;;;;;14.03;11.52;;;;;;;9.48;79.30;100112.58;455477;114;922939;-78
2021/11/28 04:48:07;;;;;;;12.76;9.99;;;;;;;9.50;79.26;100120.53;450181;116;922999;-76
2021/11/28 04:49:13;;;;;;;12.08;10.80;;;;;;;9.50;79.22;100115.92;456861;114;930328;-79
2021/11/28 04:50:18;;;;;;;11.74;10.28;;;;;;;9.50;79.26;100126.81;465157;112;923057;-79
2021/11/28 04:51:22;;;;;;;10.63;9.10;;;;;;;9.51;79.29;100114.88;464653;113;922219;-77
2021/11/28 04:52:27;;;;;;;10.59;9.64;;;;;;;9.52;79.27;100126.60;465271;114;922351;-79
2021/11/28 04:53:30;;;;;;;10.64;9.00;;;;;;;9.53;79.26;100136.44;466051;113;929673;-79
2021/11/28 04:54:34;;;;;;;11.48;10.24;;;;;;;9.54;79.22;100127.20;465366;113;922456;-81
2021/11/28 04:55:37;;;;;;;11.54;8.78;;;;;;;9.56;79.17;100133.27;465521;112;929839;-79
2021/11/28 04:56:41;;;;;;;11.64;10.54;;;;;;;9.55;79.14;100117.98;455626;115;929943;-80
2021/11/28 04:57:45;;;;;;;11.22;9.95;;;;;;;9.56;79.15;100130.55;456060;114;929763;-79
2021/11/28 04:58:48;;;;;;;10.35;9.35;;;;;;;9.55;79.14;100126.98;464938;112;922430;-78
2021/11/28 04:59:53;;;;;;;9.93;9.12;;;;;;;9.56;79.16;100128.66;464928;111;922825;-76